Terminal Aerodrome Forecast
Issued by NWS

Home | Current Version | Previous Version | Text Only | Print | Product List | Glossary On
Versions: 1 2 3 4 5 6 7 8 9 10 11 12 13 14 15 16
000
FTUS46 KMTR 011122
TAFSJC
TAF
KSJC 011122Z 0112/0212 12004KT P6SM BKN015
     FM011700 29003KT P6SM SCT015 SCT150
     FM011900 30006KT P6SM SCT150
     FM012100 31012KT P6SM SCT150
     FM020500 31006KT P6SM SCT150
     FM021000 14004KT P6SM SCT015=

USA.gov is the U.S. government's official web portal to all federal, state and local government web resources and services.